MSC Leanne — 3EXH3 — position and weather

sailwx.info

Track history (hours):
 
Tides and Currents Weather Stations Pressure Air Temp Water Temp Dewpoint Dewpoint Depression Visibility Wind Speed Wind Dir Waves Ship Positions

MSC Leanne

Last reported at 2015-Aug-04 04:22 UTC. Time now 2015-Aug-28 12:49 UTC.
Position N 26°22' W 078°57'.
Warning: this ship's position is 24 days out of date.

Length 294 m; draft 9.2 m.

Type: Ship (hazmat cat A). MMSI: 357723000.

Date/timePositionNaut miles runAvg speedWind from/ knotsBaromVisibWave heightAir tempDewpointWater temp
2015-Aug-04 04:22N 26°22' W 078°57'28 1.2
2015-Aug-03 05:16N 26°16' W 079°27'1217.1
2015-Aug-03 04:34N 26°13' W 079°40'1716.8
2015-Aug-03 03:34N 26°07' W 079°58'8 8.1
2015-Aug-03 02:33N 26°05' W 080°07'1 0.6
2015-Aug-03 01:31N 26°04' W 080°07'0 0.0
2015-Aug-03 00:31N 26°04' W 080°07'0 0.0
2015-Aug-02 23:31N 26°04' W 080°07'0 0.0
2015-Aug-02 22:31N 26°04' W 080°07'0 0.0
2015-Aug-02 21:31N 26°04' W 080°07'0 0.0
2015-Aug-02 20:31N 26°04' W 080°07'0 0.0
2015-Aug-02 19:31N 26°04' W 080°07'0 0.0
2015-Aug-02 18:31N 26°04' W 080°07'0 0.0
2015-Aug-02 17:25N 26°04' W 080°07'0 0.0
2015-Aug-02 16:28N 26°04' W 080°07'0 0.0
2015-Aug-02 15:31N 26°04' W 080°07'0 0.0
2015-Aug-02 14:31N 26°04' W 080°07'0 0.0
2015-Aug-02 13:31N 26°04' W 080°07'0 0.0
2015-Aug-02 12:28N 26°04' W 080°07'0 0.0
2015-Aug-02 11:25N 26°04' W 080°07'0 0.0
2015-Aug-02 10:28N 26°04' W 080°07'0 0.0
2015-Aug-02 09:31N 26°04' W 080°07'1 0.9
2015-Aug-02 08:33N 26°05' W 080°07'5 5.0
2015-Aug-02 07:33N 26°08' W 080°02'6 6.4
2015-Aug-02 06:33N 26°13' W 079°58'8 7.9
2015-Aug-02 05:33N 26°20' W 079°53'1211.9
2015-Aug-02 04:33N 26°31' W 079°51'1211.9
2015-Aug-02 03:33N 26°43' W 079°51'1111.2
2015-Aug-02 02:33N 26°55' W 079°51'1111.0
2015-Aug-02 01:33N 27°05' W 079°50'1111.1
2015-Aug-02 00:33N 27°17' W 079°50'  
2015-Jul-29 13:33N 38°29' W 074°06'1515.2
2015-Jul-29 12:33N 38°44' W 074°05'1413.7
2015-Jul-29 11:33N 38°58' W 074°02'1514.9
2015-Jul-29 10:33N 39°12' W 073°59'1515.1
2015-Jul-29 09:33N 39°27' W 073°56'1515.0
2015-Jul-29 08:33N 39°42' W 073°52'1515.0
2015-Jul-29 07:33N 39°57' W 073°51'1615.1
2015-Jul-29 06:31N 40°13' W 073°50'1313.9
2015-Jul-29 05:33N 40°26' W 073°48'1313.4
2015-Jul-29 04:33N 40°34' W 074°02'8 7.6
2015-Jul-29 03:33N 40°39' W 074°09'1 1.4
2015-Jul-29 02:33N 40°39' W 074°11'0 0.0
2015-Jul-29 01:33N 40°39' W 074°11'0 0.0
2015-Jul-29 00:33N 40°39' W 074°11'0 0.0
2015-Jul-28 23:33N 40°39' W 074°11'0 0.0
2015-Jul-28 22:33N 40°39' W 074°11'0 0.0
2015-Jul-28 21:33N 40°39' W 074°11'0 0.0
2015-Jul-28 20:33N 40°39' W 074°11'0 0.0
2015-Jul-28 19:33N 40°39' W 074°11'0 0.0
2015-Jul-28 18:33N 40°39' W 074°11'0 0.0
2015-Jul-28 17:33N 40°39' W 074°11'0 0.0
2015-Jul-28 16:33N 40°39' W 074°11'0 0.0
2015-Jul-28 15:33N 40°39' W 074°11'0 0.0
2015-Jul-28 14:33N 40°39' W 074°11'0 0.0
2015-Jul-28 13:33N 40°39' W 074°11'0 0.0
2015-Jul-28 12:33N 40°39' W 074°11'0 0.0
2015-Jul-28 11:33N 40°39' W 074°11'0 0.0
2015-Jul-28 10:30N 40°39' W 074°11'0 0.4
2015-Jul-28 09:33N 40°39' W 074°11'6 5.8
2015-Jul-28 08:33N 40°38' W 074°03'1312.7
2015-Jul-28 07:33N 40°28' W 073°53'9 9.5
2015-Jul-28 06:34N 40°21' W 073°46'1616.5
2015-Jul-28 05:34N 40°04' W 073°43'1716.9
2015-Jul-28 04:33N 39°47' W 073°42'1717.2
2015-Jul-28 03:33N 39°31' W 073°49'9 9.0
2015-Jul-28 02:33N 39°23' W 073°54'0 0.4
2015-Jul-28 01:33N 39°22' W 073°54'0 0.4
2015-Jul-28 00:34N 39°22' W 073°54'0 0.5
2015-Jul-27 23:34N 39°22' W 073°54'1 0.5
2015-Jul-27 22:33N 39°21' W 073°54'1 0.6
2015-Jul-27 21:26N 39°20' W 073°53'1 0.6
2015-Jul-27 20:34N 39°20' W 073°53'6 6.1
2015-Jul-27 19:31N 39°16' W 073°60'3015.3
2015-Jul-27 17:33N 38°53' W 074°25'2014.0
2015-Jul-27 16:09N 38°46' W 074°48'915.9
2015-Jul-27 15:34N 38°46' W 075°00'1212.3
2015-Jul-27 14:33N 38°57' W 075°07'1716.8
2015-Jul-27 13:33N 39°12' W 075°17'1717.3
2015-Jul-27 12:33N 39°25' W 075°31'1313.1
2015-Jul-27 11:33N 39°38' W 075°34'1211.9
2015-Jul-27 10:33N 39°48' W 075°26'10 9.9
2015-Jul-27 09:33N 39°52' W 075°14'5 4.7
2015-Jul-27 08:33N 39°54' W 075°08'0 0.0
2015-Jul-27 07:34N 39°54' W 075°08'0 0.0
2015-Jul-27 06:34N 39°54' W 075°08'0 0.0
2015-Jul-27 05:33N 39°54' W 075°08'0 0.0
2015-Jul-27 04:34N 39°54' W 075°08'0 0.0
2015-Jul-27 03:33N 39°54' W 075°08'0 0.0
2015-Jul-27 02:34N 39°54' W 075°08'0 0.0
2015-Jul-27 01:33N 39°54' W 075°08'0 0.0
2015-Jul-27 00:34N 39°54' W 075°08'0 0.0
2015-Jul-26 23:34N 39°54' W 075°08'0 0.0
2015-Jul-26 22:33N 39°54' W 075°08'0 0.0
2015-Jul-26 21:34N 39°54' W 075°08'3 3.1
2015-Jul-26 20:34N 39°53' W 075°12'8 8.4
2015-Jul-26 19:33N 39°50' W 075°22'9 9.5
2015-Jul-26 18:34N 39°43' W 075°30'1110.8
2015-Jul-26 17:33N 39°32' W 075°33'1413.9
2015-Jul-26 16:33N 39°20' W 075°25'1616.0
2015-Jul-26 15:33N 39°07' W 075°13'1616.2
2015-Jul-26 14:33N 38°52' W 075°04'1111.3
2015-Jul-26 13:33N 38°43' W 074°55'1414.0
2015-Jul-26 12:33N 38°32' W 074°44'1716.7
2015-Jul-26 11:34N 38°17' W 074°35'5417.1
2015-Jul-26 08:23N 37°23' W 074°26'2017.1
2015-Jul-26 07:13N 37°03' W 074°27'  
Track history (hours):
 
Tides and Currents Weather Stations Pressure Air Temp Water Temp Dewpoint Dewpoint Depression Visibility Wind Speed Wind Dir Waves Ship Positions

MSC Leanne

Last reported at 2015-Aug-04 04:22 UTC. Time now 2015-Aug-28 12:49 UTC.
Position N 26°22' W 078°57'.
Warning: this ship's position is 24 days out of date.

Length 294 m; draft 9.2 m.

Type: Ship (hazmat cat A). MMSI: 357723000.

Date/timePositionNaut miles runAvg speedWind from/ knotsBaromVisibWave heightAir tempDewpointWater temp
2015-Aug-04 04:22N 26°22' W 078°57'28 1.2
2015-Aug-03 05:16N 26°16' W 079°27'1217.1
2015-Aug-03 04:34N 26°13' W 079°40'1716.8
2015-Aug-03 03:34N 26°07' W 079°58'8 8.1
2015-Aug-03 02:33N 26°05' W 080°07'1 0.6
2015-Aug-03 01:31N 26°04' W 080°07'0 0.0
2015-Aug-03 00:31N 26°04' W 080°07'0 0.0
2015-Aug-02 23:31N 26°04' W 080°07'0 0.0
2015-Aug-02 22:31N 26°04' W 080°07'0 0.0
2015-Aug-02 21:31N 26°04' W 080°07'0 0.0
2015-Aug-02 20:31N 26°04' W 080°07'0 0.0
2015-Aug-02 19:31N 26°04' W 080°07'0 0.0
2015-Aug-02 18:31N 26°04' W 080°07'0 0.0
2015-Aug-02 17:25N 26°04' W 080°07'0 0.0
2015-Aug-02 16:28N 26°04' W 080°07'0 0.0
2015-Aug-02 15:31N 26°04' W 080°07'0 0.0
2015-Aug-02 14:31N 26°04' W 080°07'0 0.0
2015-Aug-02 13:31N 26°04' W 080°07'0 0.0
2015-Aug-02 12:28N 26°04' W 080°07'0 0.0
2015-Aug-02 11:25N 26°04' W 080°07'0 0.0
2015-Aug-02 10:28N 26°04' W 080°07'0 0.0
2015-Aug-02 09:31N 26°04' W 080°07'1 0.9
2015-Aug-02 08:33N 26°05' W 080°07'5 5.0
2015-Aug-02 07:33N 26°08' W 080°02'6 6.4
2015-Aug-02 06:33N 26°13' W 079°58'8 7.9
2015-Aug-02 05:33N 26°20' W 079°53'1211.9
2015-Aug-02 04:33N 26°31' W 079°51'1211.9
2015-Aug-02 03:33N 26°43' W 079°51'1111.2
2015-Aug-02 02:33N 26°55' W 079°51'1111.0
2015-Aug-02 01:33N 27°05' W 079°50'1111.1
2015-Aug-02 00:33N 27°17' W 079°50'  
2015-Jul-29 13:33N 38°29' W 074°06'1515.2
2015-Jul-29 12:33N 38°44' W 074°05'1413.7
2015-Jul-29 11:33N 38°58' W 074°02'1514.9
2015-Jul-29 10:33N 39°12' W 073°59'1515.1
2015-Jul-29 09:33N 39°27' W 073°56'1515.0
2015-Jul-29 08:33N 39°42' W 073°52'1515.0
2015-Jul-29 07:33N 39°57' W 073°51'1615.1
2015-Jul-29 06:31N 40°13' W 073°50'1313.9
2015-Jul-29 05:33N 40°26' W 073°48'1313.4
2015-Jul-29 04:33N 40°34' W 074°02'8 7.6
2015-Jul-29 03:33N 40°39' W 074°09'1 1.4
2015-Jul-29 02:33N 40°39' W 074°11'0 0.0
2015-Jul-29 01:33N 40°39' W 074°11'0 0.0
2015-Jul-29 00:33N 40°39' W 074°11'0 0.0
2015-Jul-28 23:33N 40°39' W 074°11'0 0.0
2015-Jul-28 22:33N 40°39' W 074°11'0 0.0
2015-Jul-28 21:33N 40°39' W 074°11'0 0.0
2015-Jul-28 20:33N 40°39' W 074°11'0 0.0
2015-Jul-28 19:33N 40°39' W 074°11'0 0.0
2015-Jul-28 18:33N 40°39' W 074°11'0 0.0
2015-Jul-28 17:33N 40°39' W 074°11'0 0.0
2015-Jul-28 16:33N 40°39' W 074°11'0 0.0
2015-Jul-28 15:33N 40°39' W 074°11'0 0.0
2015-Jul-28 14:33N 40°39' W 074°11'0 0.0
2015-Jul-28 13:33N 40°39' W 074°11'0 0.0
2015-Jul-28 12:33N 40°39' W 074°11'0 0.0
2015-Jul-28 11:33N 40°39' W 074°11'0 0.0
2015-Jul-28 10:30N 40°39' W 074°11'0 0.4
2015-Jul-28 09:33N 40°39' W 074°11'6 5.8
2015-Jul-28 08:33N 40°38' W 074°03'1312.7
2015-Jul-28 07:33N 40°28' W 073°53'9 9.5
2015-Jul-28 06:34N 40°21' W 073°46'1616.5
2015-Jul-28 05:34N 40°04' W 073°43'1716.9
2015-Jul-28 04:33N 39°47' W 073°42'1717.2
2015-Jul-28 03:33N 39°31' W 073°49'9 9.0
2015-Jul-28 02:33N 39°23' W 073°54'0 0.4
2015-Jul-28 01:33N 39°22' W 073°54'0 0.4
2015-Jul-28 00:34N 39°22' W 073°54'0 0.5
2015-Jul-27 23:34N 39°22' W 073°54'1 0.5
2015-Jul-27 22:33N 39°21' W 073°54'1 0.6
2015-Jul-27 21:26N 39°20' W 073°53'1 0.6
2015-Jul-27 20:34N 39°20' W 073°53'6 6.1
2015-Jul-27 19:31N 39°16' W 073°60'3015.3
2015-Jul-27 17:33N 38°53' W 074°25'2014.0
2015-Jul-27 16:09N 38°46' W 074°48'915.9
2015-Jul-27 15:34N 38°46' W 075°00'1212.3
2015-Jul-27 14:33N 38°57' W 075°07'1716.8
2015-Jul-27 13:33N 39°12' W 075°17'1717.3
2015-Jul-27 12:33N 39°25' W 075°31'1313.1
2015-Jul-27 11:33N 39°38' W 075°34'1211.9
2015-Jul-27 10:33N 39°48' W 075°26'10 9.9
2015-Jul-27 09:33N 39°52' W 075°14'5 4.7
2015-Jul-27 08:33N 39°54' W 075°08'0 0.0
2015-Jul-27 07:34N 39°54' W 075°08'0 0.0
2015-Jul-27 06:34N 39°54' W 075°08'0 0.0
2015-Jul-27 05:33N 39°54' W 075°08'0 0.0
2015-Jul-27 04:34N 39°54' W 075°08'0 0.0
2015-Jul-27 03:33N 39°54' W 075°08'0 0.0
2015-Jul-27 02:34N 39°54' W 075°08'0 0.0
2015-Jul-27 01:33N 39°54' W 075°08'0 0.0
2015-Jul-27 00:34N 39°54' W 075°08'0 0.0
2015-Jul-26 23:34N 39°54' W 075°08'0 0.0
2015-Jul-26 22:33N 39°54' W 075°08'0 0.0
2015-Jul-26 21:34N 39°54' W 075°08'3 3.1
2015-Jul-26 20:34N 39°53' W 075°12'8 8.4
2015-Jul-26 19:33N 39°50' W 075°22'9 9.5
2015-Jul-26 18:34N 39°43' W 075°30'1110.8
2015-Jul-26 17:33N 39°32' W 075°33'1413.9
2015-Jul-26 16:33N 39°20' W 075°25'1616.0
2015-Jul-26 15:33N 39°07' W 075°13'1616.2
2015-Jul-26 14:33N 38°52' W 075°04'1111.3
2015-Jul-26 13:33N 38°43' W 074°55'1414.0
2015-Jul-26 12:33N 38°32' W 074°44'1716.7
2015-Jul-26 11:34N 38°17' W 074°35'5417.1
2015-Jul-26 08:23N 37°23' W 074°26'2017.1
2015-Jul-26 07:13N 37°03' W 074°27'  

Dump ship's entire track history